Time;durP1;ratioP1;P1;durP2;ratioP2;P2;SDS_P1;SDS_P2;PMS_P1;PMS_P2;Temp;Humidity;BMP_temperature;BMP_pressure;BME280_temperature;BME280_humidity;BME280_pressure;Samples;Min_cycle;Max_cycle;Signal;HPM_P1;HPM_P2
2022/12/05 05:22:36;;;;;;;9.50;5.90;;;;;;;3.15;100.00;100274.44;5112235;27;20326;-66
2022/12/05 05:25:02;;;;;;;13.68;5.60;;;;;;;3.20;100.00;100274.91;5112013;28;20057;-67
2022/12/05 05:27:27;;;;;;;14.90;7.15;;;;;;;3.24;100.00;100276.31;5110699;28;20540;-67
2022/12/05 05:29:52;;;;;;;19.40;8.73;;;;;;;3.30;100.00;100280.25;5110607;28;20476;-67
2022/12/05 05:32:18;;;;;;;13.00;6.07;;;;;;;3.30;100.00;100290.78;5109994;28;20040;-66
2022/12/05 05:34:43;;;;;;;14.70;6.35;;;;;;;3.31;100.00;100292.44;5110552;28;20085;-66
2022/12/05 05:37:08;;;;;;;12.98;5.68;;;;;;;3.28;100.00;100293.53;5109347;28;20119;-66
2022/12/05 05:39:34;;;;;;;13.48;6.82;;;;;;;3.32;100.00;100305.47;5109444;28;20044;-66
2022/12/05 05:41:59;;;;;;;13.38;6.10;;;;;;;3.35;100.00;100304.41;5109089;28;20043;-66
2022/12/05 05:44:24;;;;;;;13.57;5.95;;;;;;;3.33;100.00;100306.34;5109261;28;20122;-66
2022/12/05 05:46:50;;;;;;;14.20;7.00;;;;;;;3.33;100.00;100291.38;5109211;28;20043;-66
2022/12/05 05:49:15;;;;;;;14.57;5.60;;;;;;;3.41;100.00;100296.00;5109197;28;20043;-66
2022/12/05 05:51:40;;;;;;;12.13;5.70;;;;;;;3.41;100.00;100309.19;5108763;28;20107;-66
2022/12/05 05:54:06;;;;;;;12.27;5.85;;;;;;;3.44;100.00;100308.91;5109227;28;20048;-67
2022/12/05 05:56:31;;;;;;;19.27;6.13;;;;;;;3.45;100.00;100308.78;5108948;28;20673;-66
2022/12/05 05:58:59;;;;;;;13.93;6.60;;;;;;;3.46;100.00;100307.84;5109254;28;20036;-66
2022/12/05 06:01:25;;;;;;;9.98;5.65;;;;;;;3.47;100.00;100311.31;5108647;28;20047;-66
2022/12/05 06:03:51;;;;;;;9.18;5.93;;;;;;;3.46;100.00;100305.22;5109335;28;20117;-66
2022/12/05 06:06:17;;;;;;;11.70;5.55;;;;;;;3.52;100.00;100307.34;5109267;28;20035;-66
2022/12/05 06:08:44;;;;;;;12.10;5.38;;;;;;;3.53;100.00;100314.28;5108953;28;20488;-66
2022/12/05 06:11:19;;;;;;;11.43;5.03;;;;;;;3.53;100.00;100303.75;5108383;28;20131;-66
2022/12/05 06:13:45;;;;;;;11.13;6.25;;;;;;;3.51;100.00;100305.63;5108879;28;20036;-67
2022/12/05 06:16:13;;;;;;;15.25;5.57;;;;;;;3.52;100.00;100311.75;5108710;28;20053;-66
2022/12/05 06:18:39;;;;;;;13.20;5.88;;;;;;;3.53;100.00;100323.97;5108734;28;20036;-66
2022/12/05 06:21:07;;;;;;;12.50;6.68;;;;;;;3.57;100.00;100327.19;5108513;28;20119;-66
2022/12/05 06:23:33;;;;;;;10.07;5.28;;;;;;;3.53;100.00;100323.97;5108398;28;20071;-66
2022/12/05 06:25:59;;;;;;;13.48;5.10;;;;;;;3.54;100.00;100320.38;5108426;28;20089;-66
2022/12/05 06:28:25;;;;;;;9.50;5.57;;;;;;;3.53;100.00;100327.44;5109152;28;20044;-65
2022/12/05 06:30:51;;;;;;;10.63;5.00;;;;;;;3.61;100.00;100329.44;5108079;28;20110;-66
2022/12/05 06:33:17;;;;;;;10.93;5.57;;;;;;;3.65;100.00;100337.91;5098683;28;20046;-66
2022/12/05 06:35:43;;;;;;;9.43;5.03;;;;;;;3.63;100.00;100334.56;5094697;28;20040;-66
2022/12/05 06:38:09;;;;;;;9.45;5.28;;;;;;;3.58;100.00;100332.31;5094768;28;20042;-66
2022/12/05 06:40:40;;;;;;;12.43;5.78;;;;;;;3.63;100.00;100340.69;5094265;28;20123;-66
2022/12/05 06:43:05;;;;;;;11.90;5.63;;;;;;;3.65;100.00;100348.44;5094634;28;20040;-66
2022/12/05 06:45:30;;;;;;;9.05;4.78;;;;;;;3.62;100.00;100344.28;5094433;28;20105;-66
2022/12/05 06:47:56;;;;;;;11.32;5.70;;;;;;;3.62;100.00;100349.53;5094581;28;20032;-66
2022/12/05 06:50:21;;;;;;;8.80;4.25;;;;;;;3.51;100.00;100331.97;5094133;28;20046;-66
2022/12/05 06:52:47;;;;;;;11.73;4.82;;;;;;;3.60;100.00;100345.38;5094477;28;20036;-66
2022/12/05 06:55:12;;;;;;;14.63;6.07;;;;;;;3.57;100.00;100351.72;5094188;28;20066;-66
2022/12/05 06:57:37;;;;;;;8.73;4.82;;;;;;;3.54;100.00;100358.09;5094415;28;20354;-66
2022/12/05 07:02:51;;;;;;;9.48;4.75;;;;;;;3.59;100.00;100362.97;5094260;28;20056;-65
2022/12/05 07:05:17;;;;;;;9.20;4.75;;;;;;;3.54;100.00;100360.72;5094027;28;20046;-65
2022/12/05 07:07:42;;;;;;;11.90;6.18;;;;;;;3.60;100.00;100366.44;5094170;28;20115;-66
2022/12/05 07:10:08;;;;;;;11.00;5.43;;;;;;;3.61;100.00;100370.75;5094009;28;20040;-66
2022/12/05 07:12:33;;;;;;;10.55;5.38;;;;;;;3.63;100.00;100372.28;5094195;28;20040;-64
2022/12/05 07:14:59;;;;;;;11.30;5.20;;;;;;;3.66;100.00;100376.50;5094270;28;20047;-66
2022/12/05 07:17:24;;;;;;;11.90;5.63;;;;;;;3.62;100.00;100375.91;5093969;28;20059;-66
2022/12/05 07:19:51;;;;;;;12.35;5.55;;;;;;;3.64;100.00;100379.22;5093980;28;20480;-66
2022/12/05 07:22:18;;;;;;;8.35;4.22;;;;;;;3.64;100.00;100388.94;5093518;28;20060;-65
2022/12/05 07:24:44;;;;;;;8.45;5.53;;;;;;;3.62;100.00;100391.69;5094116;28;20101;-65
2022/12/05 07:27:10;;;;;;;12.38;4.78;;;;;;;3.58;100.00;100390.25;5093656;28;20044;-66
2022/12/05 07:29:36;;;;;;;8.82;4.53;;;;;;;3.63;100.00;100395.16;5092547;28;20067;-66
2022/12/05 07:32:01;;;;;;;12.55;5.53;;;;;;;3.65;100.00;100394.09;5092192;28;20068;-66
2022/12/05 07:34:27;;;;;;;9.13;4.60;;;;;;;3.64;100.00;100397.66;5093789;28;20127;-66
2022/12/05 07:36:52;;;;;;;11.15;5.22;;;;;;;3.61;100.00;100400.56;5093411;28;20032;-66
2022/12/05 07:39:18;;;;;;;11.77;5.35;;;;;;;3.68;100.00;100398.28;5093471;28;20036;-66
2022/12/05 07:41:43;;;;;;;11.75;5.93;;;;;;;3.62;100.00;100401.41;5093238;28;20489;-66
2022/12/05 07:44:14;;;;;;;10.02;5.57;;;;;;;3.65;100.00;100406.41;5091310;28;20036;-66
2022/12/05 07:46:39;;;;;;;10.40;5.80;;;;;;;3.66;100.00;100408.09;5093331;28;20040;-66
2022/12/05 07:49:06;;;;;;;11.52;4.97;;;;;;;3.69;100.00;100407.84;5093340;28;20032;-66
2022/12/05 07:51:32;;;;;;;9.50;5.40;;;;;;;3.71;100.00;100408.53;5091610;28;20370;-66
2022/12/05 07:53:58;;;;;;;12.52;5.80;;;;;;;3.73;100.00;100410.09;5093252;28;20038;-66
2022/12/05 07:56:23;;;;;;;12.27;4.65;;;;;;;3.74;100.00;100405.69;5093228;28;20416;-66
2022/12/05 07:58:49;;;;;;;11.68;5.82;;;;;;;3.73;100.00;100411.91;5093204;28;20032;-65
2022/12/05 08:01:17;;;;;;;12.50;5.13;;;;;;;3.73;100.00;100410.09;5092906;28;20447;-66
2022/12/05 08:03:44;;;;;;;11.10;4.97;;;;;;;3.79;100.00;100419.31;5092919;28;20040;-65
2022/12/05 08:06:12;;;;;;;11.25;6.25;;;;;;;3.79;100.00;100414.03;5092238;28;20123;-65
2022/12/05 08:08:38;;;;;;;12.63;6.05;;;;;;;3.82;100.00;100408.50;5092961;28;20044;-65
2022/12/05 08:11:13;;;;;;;13.48;6.25;;;;;;;3.81;100.00;100398.94;5091435;28;20043;-65
2022/12/05 08:13:40;;;;;;;10.43;5.28;;;;;;;3.89;100.00;100416.75;5092891;28;20097;-65
2022/12/05 08:16:08;;;;;;;12.73;5.68;;;;;;;3.90;100.00;100413.16;5092775;28;20028;-65
2022/12/05 08:18:34;;;;;;;15.00;5.60;;;;;;;3.89;100.00;100414.94;5092741;28;20032;-66
2022/12/05 08:21:07;;;;;;;9.45;5.32;;;;;;;3.91;100.00;100413.03;5092307;28;20442;-65
2022/12/05 08:23:33;;;;;;;11.18;5.72;;;;;;;3.91;100.00;100417.44;5093105;28;20040;-66
2022/12/05 08:26:06;;;;;;;11.55;5.57;;;;;;;3.92;100.00;100419.97;5092570;28;20039;-66
2022/12/05 08:28:32;;;;;;;10.43;5.55;;;;;;;3.93;100.00;100426.09;5091228;28;20423;-66
2022/12/05 08:31:25;;;;;;;15.98;5.88;;;;;;;3.93;100.00;100423.44;5092157;28;20043;-66
2022/12/05 08:33:51;;;;;;;12.85;6.38;;;;;;;3.97;100.00;100438.03;5091517;28;20501;-66
2022/12/05 08:36:18;;;;;;;11.18;5.68;;;;;;;3.96;100.00;100433.72;5092411;28;20400;-66
2022/12/05 08:38:44;;;;;;;14.10;6.00;;;;;;;3.99;100.00;100444.03;5091183;28;20036;-65
2022/12/05 08:41:12;;;;;;;8.98;4.35;;;;;;;4.03;100.00;100432.25;5092093;28;20038;-65
2022/12/05 08:43:38;;;;;;;12.32;6.30;;;;;;;4.07;100.00;100437.16;5092414;28;20074;-66
2022/12/05 08:46:04;;;;;;;14.45;6.65;;;;;;;4.07;100.00;100434.53;5092320;28;20071;-65
2022/12/05 08:48:31;;;;;;;15.48;6.68;;;;;;;4.10;100.00;100430.78;5092214;28;20067;-65
2022/12/05 08:50:57;;;;;;;12.32;5.88;;;;;;;4.12;100.00;100435.94;5092037;28;20032;-66
2022/12/05 08:53:23;;;;;;;11.63;4.95;;;;;;;4.13;100.00;100442.91;5092268;28;20036;-65
2022/12/05 08:55:49;;;;;;;15.25;6.57;;;;;;;4.13;100.00;100449.00;5091885;28;20031;-66
2022/12/05 08:58:14;;;;;;;12.55;6.60;;;;;;;4.18;100.00;100451.25;5092153;28;20031;-66
2022/12/05 09:00:41;;;;;;;16.10;5.60;;;;;;;4.16;100.00;100450.53;5091970;28;20036;-66
2022/12/05 09:03:09;;;;;;;11.45;6.53;;;;;;;4.18;100.00;100454.75;5092082;28;20059;-66
2022/12/05 09:05:35;;;;;;;9.73;4.63;;;;;;;4.18;100.00;100459.19;5092024;28;20036;-66
2022/12/05 09:08:00;;;;;;;11.45;5.65;;;;;;;4.21;100.00;100464.19;5092044;28;20404;-66
2022/12/05 09:10:26;;;;;;;15.75;7.18;;;;;;;4.22;100.00;100471.97;5090600;28;20115;-66
2022/12/05 09:12:52;;;;;;;12.82;6.05;;;;;;;4.21;100.00;100477.38;5091956;28;20453;-66
2022/12/05 09:15:18;;;;;;;13.18;6.18;;;;;;;4.25;100.00;100479.63;5091891;28;20040;-66
2022/12/05 09:17:44;;;;;;;12.82;6.03;;;;;;;4.26;100.00;100470.75;5092110;28;20067;-66
2022/12/05 09:20:12;;;;;;;12.57;5.85;;;;;;;4.32;100.00;100480.78;5091767;28;20032;-66
2022/12/05 09:22:38;;;;;;;11.55;5.28;;;;;;;4.33;100.00;100481.63;5091986;28;20032;-66
2022/12/05 09:25:04;;;;;;;12.20;6.18;;;;;;;4.35;100.00;100493.72;5090703;28;20503;-66
2022/12/05 09:27:29;;;;;;;13.20;5.88;;;;;;;4.33;100.00;100485.09;5091792;28;20039;-65
2022/12/05 09:29:55;;;;;;;16.15;6.70;;;;;;;4.35;100.00;100504.25;5091977;28;20043;-65
2022/12/05 09:32:20;;;;;;;13.82;6.45;;;;;;;4.38;100.00;100500.56;5092122;28;20481;-65
2022/12/05 09:34:46;;;;;;;14.55;6.10;;;;;;;4.37;100.00;100512.06;5091853;28;20066;-66
2022/12/05 09:37:11;;;;;;;17.02;6.60;;;;;;;4.41;100.00;100508.19;5091670;28;20106;-65
2022/12/05 09:39:37;;;;;;;10.23;5.72;;;;;;;4.40;100.00;100511.81;5091747;28;20404;-66
2022/12/05 09:42:06;;;;;;;14.07;6.32;;;;;;;4.42;100.00;100515.13;5091341;28;20036;-65
2022/12/05 09:45:09;;;;;;;13.38;5.75;;;;;;;4.36;100.00;100518.28;5090396;28;20402;-66
2022/12/05 09:47:35;;;;;;;13.48;5.93;;;;;;;4.40;100.00;100519.72;5091671;28;20039;-65
2022/12/05 09:50:13;;;;;;;15.13;6.45;;;;;;;4.40;100.00;100513.59;5091501;28;20036;-66
2022/12/05 09:52:45;;;;;;;12.23;5.72;;;;;;;4.39;100.00;100511.94;5091464;28;20040;-66
2022/12/05 09:55:14;;;;;;;12.30;6.07;;;;;;;4.39;100.00;100504.03;5091516;28;20047;-66
2022/12/05 09:57:49;;;;;;;10.55;6.45;;;;;;;4.45;100.00;100504.34;5091697;28;20469;-66
2022/12/05 10:00:15;;;;;;;10.80;5.30;;;;;;;4.42;100.00;100496.69;5091284;28;20059;-66
2022/12/05 10:02:56;;;;;;;16.83;7.35;;;;;;;4.47;100.00;100493.66;5091499;28;20429;-65
2022/12/05 10:05:28;;;;;;;10.35;5.72;;;;;;;4.46;100.00;100503.38;5091466;28;20051;-66
2022/12/05 10:08:23;;;;;;;16.60;6.70;;;;;;;4.46;100.00;100506.03;5092820;28;20036;-66
2022/12/05 10:11:09;;;;;;;16.45;6.28;;;;;;;4.49;100.00;100508.38;5094240;28;20052;-65
2022/12/05 10:13:54;;;;;;;18.05;6.20;;;;;;;4.52;100.00;100507.31;5095243;28;20024;-65
2022/12/05 10:16:49;;;;;;;9.50;5.30;;;;;;;4.51;100.00;100511.75;5095195;28;20458;-66
2022/12/05 10:19:23;;;;;;;12.45;5.90;;;;;;;4.52;100.00;100518.72;5095354;28;20063;-65
2022/12/05 10:22:13;;;;;;;16.63;6.38;;;;;;;4.51;100.00;100509.13;5094697;28;20024;-66
2022/12/05 10:24:45;;;;;;;17.63;6.93;;;;;;;4.52;100.00;100507.31;5094886;28;20048;-66
2022/12/05 10:27:18;;;;;;;10.90;5.85;;;;;;;4.58;100.00;100505.00;5095008;28;20501;-66
2022/12/05 10:29:58;;;;;;;10.80;6.50;;;;;;;4.56;100.00;100504.31;5094987;28;20119;-66
2022/12/05 10:32:48;;;;;;;10.98;5.97;;;;;;;4.58;100.00;100494.44;5094829;28;20040;-65
2022/12/05 10:35:18;;;;;;;15.27;6.55;;;;;;;4.60;100.00;100505.69;5094606;28;20032;-64
2022/12/05 10:37:48;;;;;;;12.52;6.65;;;;;;;4.67;100.00;100500.75;5094758;28;20473;-65
2022/12/05 10:40:14;;;;;;;15.70;7.32;;;;;;;4.72;100.00;100489.81;5094456;28;20572;-65
2022/12/05 10:42:41;;;;;;;12.35;5.82;;;;;;;4.77;100.00;100490.25;5094716;28;20105;-65
2022/12/05 10:45:18;;;;;;;13.07;6.57;;;;;;;4.83;100.00;100485.31;5094667;28;20054;-66
2022/12/05 10:47:43;;;;;;;17.33;7.07;;;;;;;4.88;100.00;100482.25;5094771;28;20047;-66
2022/12/05 10:50:30;;;;;;;12.45;6.13;;;;;;;4.93;100.00;100489.78;5094368;28;20435;-66
2022/12/05 10:52:57;;;;;;;10.43;5.80;;;;;;;4.98;100.00;100487.59;5094545;28;20040;-66
2022/12/05 10:55:29;;;;;;;15.80;6.80;;;;;;;5.04;100.00;100495.00;5094362;28;20036;-66
2022/12/05 10:58:15;;;;;;;14.68;6.32;;;;;;;5.05;100.00;100497.50;5094414;28;20032;-65
2022/12/05 11:00:46;;;;;;;9.85;5.53;;;;;;;5.05;100.00;100497.50;5094057;28;20047;-66
2022/12/05 11:03:30;;;;;;;14.50;7.47;;;;;;;5.06;100.00;100496.53;5094196;28;20048;-66
2022/12/05 11:05:58;;;;;;;12.27;5.28;;;;;;;5.06;100.00;100491.25;5094235;28;20143;-66
2022/12/05 11:08:26;;;;;;;11.98;5.15;;;;;;;5.09;100.00;100491.00;5094345;28;20564;-66
2022/12/05 11:11:16;;;;;;;;;;;;;;;5.12;100.00;100490.72;5094279;28;20036;-66
2022/12/05 11:14:00;;;;;;;8.18;4.28;;;;;;;5.11;100.00;100483.75;5094086;28;20433;-66
2022/12/05 11:16:31;;;;;;;15.20;6.22;;;;;;;5.14;100.00;100494.06;5094086;28;20060;-66
2022/12/05 11:19:21;;;;;;;11.45;6.15;;;;;;;5.21;100.00;100475.03;5093822;28;20030;-67
2022/12/05 11:21:48;;;;;;;13.85;5.88;;;;;;;5.26;100.00;100483.41;5093528;28;20109;-66
2022/12/05 11:24:28;;;;;;;12.65;6.00;;;;;;;5.32;100.00;100481.06;5093964;28;20115;-66
2022/12/05 11:26:56;;;;;;;8.95;5.43;;;;;;;5.33;100.00;100477.44;5093918;28;20036;-65
2022/12/05 11:29:34;;;;;;;9.13;5.53;;;;;;;5.44;100.00;100489.72;5093866;28;20044;-66
2022/12/05 11:32:01;;;;;;;13.20;5.13;;;;;;;5.51;100.00;100488.22;5093346;28;20048;-66
2022/12/05 11:34:46;;;;;;;10.38;5.22;;;;;;;5.63;100.00;100484.50;5112097;22;20123;-65
2022/12/05 11:37:17;;;;;;;11.55;5.40;;;;;;;5.77;100.00;100479.78;5073363;28;20125;-61
2022/12/05 11:39:43;;;;;;;10.73;5.75;;;;;;;5.91;100.00;100476.78;5073171;28;20056;-61
2022/12/05 11:42:20;;;;;;;10.35;5.30;;;;;;;6.01;100.00;100469.69;5073054;28;20037;-63
2022/12/05 11:45:05;;;;;;;15.40;5.38;;;;;;;6.07;100.00;100463.88;5080618;28;20035;-63
2022/12/05 11:47:48;;;;;;;10.85;5.53;;;;;;;6.22;100.00;100470.41;5093331;28;20042;-65
2022/12/05 11:50:56;;;;;;;10.65;5.20;;;;;;;6.28;100.00;100465.53;5092844;28;20032;-61
2022/12/05 11:53:49;;;;;;;;;;;;;;;6.35;100.00;100464.81;5072491;28;20131;-64
2022/12/05 11:56:30;;;;;;;9.45;4.97;;;;;;;6.43;100.00;100470.22;5093046;28;19916;-63
2022/12/05 11:59:27;;;;;;;11.95;5.50;;;;;;;6.41;100.00;100468.72;5091681;28;20098;-63
2022/12/05 12:02:32;;;;;;;11.93;6.05;;;;;;;6.39;100.00;100468.00;5092559;28;20032;-62
2022/12/05 12:05:09;;;;;;;10.18;5.80;;;;;;;6.38;100.00;100469.81;5092776;28;20484;-63
2022/12/05 12:07:44;;;;;;;9.82;5.47;;;;;;;6.30;100.00;100471.50;5092756;28;20096;-63
2022/12/05 12:10:22;;;;;;;12.52;5.57;;;;;;;6.33;100.00;100471.25;5092908;28;20035;-62
2022/12/05 12:13:17;;;;;;;10.35;5.10;;;;;;;6.24;100.00;100471.09;5092942;28;20392;-63
2022/12/05 12:15:58;;;;;;;8.27;5.68;;;;;;;6.19;100.00;100468.03;5076688;28;20051;-63
2022/12/05 12:18:33;;;;;;;10.10;4.95;;;;;;;6.19;100.00;100461.88;5092568;28;20548;-63
2022/12/05 12:21:19;;;;;;;11.80;5.57;;;;;;;6.17;100.00;100463.84;5092294;28;20028;-63
2022/12/05 12:24:16;;;;;;;14.40;5.72;;;;;;;6.11;100.00;100465.22;5092417;28;20104;-63
2022/12/05 12:26:54;;;;;;;9.63;4.72;;;;;;;6.07;100.00;100460.38;5091419;28;20085;-62
2022/12/05 12:29:29;;;;;;;11.75;5.50;;;;;;;6.11;100.00;100462.59;5083376;28;20032;-63
2022/12/05 12:32:10;;;;;;;14.70;6.07;;;;;;;6.14;100.00;100450.91;5080308;28;20032;-62
2022/12/05 12:34:45;;;;;;;7.50;5.18;;;;;;;6.17;100.00;100456.75;5080889;28;20374;-63
2022/12/05 12:37:49;;;;;;;10.65;5.18;;;;;;;6.19;100.00;100460.09;5080420;28;20033;-62
2022/12/05 12:40:26;;;;;;;9.68;5.38;;;;;;;6.23;100.00;100456.19;5071122;28;20056;-63
2022/12/05 12:43:24;;;;;;;9.27;5.45;;;;;;;6.21;100.00;100452.84;5071897;28;20043;-63
2022/12/05 12:46:03;;;;;;;;;;;;;;;6.30;100.00;100459.09;5072301;28;20572;-64
2022/12/05 12:48:43;;;;;;;12.27;4.78;;;;;;;6.34;100.00;100465.81;5071700;28;20268;-63
2022/12/05 12:51:12;;;;;;;9.70;4.88;;;;;;;6.33;100.00;100463.31;5071350;28;20025;-63
2022/12/05 12:54:22;;;;;;;9.23;4.25;;;;;;;6.35;100.00;100463.97;5072048;28;20036;-61
2022/12/05 12:56:48;;;;;;;9.43;5.45;;;;;;;6.38;100.00;100471.63;5056442;28;20060;-64
2022/12/05 12:59:34;;;;;;;8.77;4.75;;;;;;;6.38;100.00;100468.97;5071725;28;20040;-63
2022/12/05 13:02:08;;;;;;;8.82;4.97;;;;;;;6.27;100.00;100471.81;5071510;28;20038;-61
2022/12/05 13:04:49;;;;;;;8.57;4.20;;;;;;;6.27;100.00;100459.41;5071591;28;20028;-60
2022/12/05 13:07:21;;;;;;;8.82;4.43;;;;;;;6.28;100.00;100469.00;5072091;28;20123;-63
2022/12/05 13:10:00;;;;;;;10.05;4.72;;;;;;;6.31;100.00;100467.88;5071616;28;20047;-63
2022/12/05 13:12:32;;;;;;;10.73;5.43;;;;;;;6.29;100.00;100468.03;5071291;28;20040;-63
2022/12/05 13:15:04;;;;;;;11.18;4.82;;;;;;;6.25;100.00;100467.47;5053438;28;20119;-63
2022/12/05 13:17:31;;;;;;;7.75;4.75;;;;;;;6.31;100.00;100463.41;5071464;28;20353;-62
2022/12/05 13:19:58;;;;;;;12.45;5.35;;;;;;;6.36;100.00;100465.66;5071129;28;20033;-63
2022/12/05 13:22:26;;;;;;;9.30;4.68;;;;;;;6.33;100.00;100471.25;5071229;28;20028;-62
2022/12/05 13:24:53;;;;;;;9.23;4.88;;;;;;;6.29;100.00;100470.66;5071345;28;20055;-62
2022/12/05 13:27:23;;;;;;;9.55;4.53;;;;;;;6.34;100.00;100478.19;5070125;28;20031;-62
2022/12/05 13:29:53;;;;;;;10.00;4.82;;;;;;;6.38;100.00;100466.34;5071598;28;20048;-63
2022/12/05 13:32:32;;;;;;;9.20;4.55;;;;;;;6.34;100.00;100468.44;5071039;28;20025;-61
2022/12/05 13:35:07;;;;;;;9.18;4.75;;;;;;;6.38;100.00;100471.63;5071111;28;20060;-63
2022/12/05 13:43:07;;;;;;;9.38;4.38;;;;;;;6.38;100.00;100466.34;5073021;28;20102;-62
2022/12/05 13:45:33;;;;;;;9.88;5.15;;;;;;;6.34;100.00;100468.44;5075083;28;20097;-63
2022/12/05 13:47:58;;;;;;;7.63;4.20;;;;;;;6.32;100.00;100474.84;5075252;28;20547;-63
2022/12/05 13:50:33;;;;;;;9.63;4.25;;;;;;;6.27;100.00;100472.63;5074937;28;20040;-63
2022/12/05 13:53:03;;;;;;;6.97;4.35;;;;;;;6.20;100.00;100476.81;5075209;28;20419;-63
2022/12/05 13:55:32;;;;;;;7.85;4.88;;;;;;;6.24;100.00;100478.19;5075088;28;20127;-63
2022/12/05 13:58:00;;;;;;;7.72;4.85;;;;;;;6.17;100.00;100477.91;5073690;28;20044;-63
2022/12/05 14:00:33;;;;;;;8.43;4.40;;;;;;;6.16;100.00;100481.53;5074569;28;20431;-62
2022/12/05 14:03:03;;;;;;;7.80;3.83;;;;;;;6.20;100.00;100482.09;5074937;28;20536;-63
2022/12/05 14:05:40;;;;;;;6.70;4.20;;;;;;;6.14;100.00;100474.72;5074850;28;20119;-62
2022/12/05 14:08:23;;;;;;;7.25;3.65;;;;;;;6.17;100.00;100483.19;5074798;28;20549;-63
2022/12/05 14:10:48;;;;;;;5.68;3.58;;;;;;;6.17;100.00;100487.66;5074468;28;20044;-62
2022/12/05 14:13:14;;;;;;;6.32;3.15;;;;;;;6.14;100.00;100486.13;5074920;28;20040;-62
2022/12/05 14:15:47;;;;;;;4.47;2.42;;;;;;;6.12;100.00;100485.41;5074857;28;20068;-63
2022/12/05 14:18:15;;;;;;;4.72;2.70;;;;;;;6.09;100.00;100490.16;5074757;28;20508;-62
2022/12/05 14:21:03;;;;;;;5.47;2.50;;;;;;;6.08;100.00;100491.97;5074322;28;20025;-63
2022/12/05 14:23:49;;;;;;;4.00;2.00;;;;;;;6.08;100.00;100486.69;5073403;28;20084;-63
2022/12/05 14:26:20;;;;;;;5.35;2.85;;;;;;;6.11;100.00;100488.22;5074620;28;20327;-62
2022/12/05 14:28:59;;;;;;;2.92;1.95;;;;;;;6.07;100.00;100490.31;5074510;28;20493;-62
2022/12/05 14:31:51;;;;;;;3.63;1.85;;;;;;;5.99;100.00;100487.50;5074153;28;20044;-62
2022/12/05 14:34:24;;;;;;;4.05;1.85;;;;;;;6.01;100.00;100495.31;5074329;28;20074;-62
2022/12/05 14:37:06;;;;;;;2.47;1.50;;;;;;;5.94;100.00;100497.69;5074403;28;20085;-63
2022/12/05 14:39:48;;;;;;;4.80;1.70;;;;;;;5.97;100.00;100494.75;5074319;28;20037;-63
2022/12/05 14:42:31;;;;;;;2.13;1.60;;;;;;;5.94;100.00;100497.69;5074011;28;20479;-61
2022/12/05 14:44:59;;;;;;;2.60;1.70;;;;;;;5.96;100.00;100506.28;5072813;28;20044;-60
2022/12/05 14:47:29;;;;;;;2.10;1.40;;;;;;;5.94;100.00;100502.97;5074251;28;20416;-62
2022/12/05 14:50:32;;;;;;;2.53;1.50;;;;;;;5.92;100.00;100502.25;5072734;28;20052;-62
2022/12/05 14:53:29;;;;;;;1.90;1.23;;;;;;;5.94;100.00;100498.50;5073741;28;20063;-62
2022/12/05 14:56:02;;;;;;;2.10;1.30;;;;;;;5.90;100.00;100499.72;5074033;28;20044;-63
2022/12/05 14:58:47;;;;;;;2.17;1.55;;;;;;;5.91;100.00;100498.75;5074113;28;20162;-63
2022/12/05 15:01:15;;;;;;;2.00;1.20;;;;;;;5.87;100.00;100501.81;5073728;28;20374;-63
2022/12/05 15:04:04;;;;;;;2.53;1.67;;;;;;;5.85;100.00;100498.44;5073955;28;20105;-63
2022/12/05 15:06:33;;;;;;;2.83;1.33;;;;;;;5.82;100.00;100496.09;5073990;28;20043;-63
2022/12/05 15:09:03;;;;;;;1.55;1.20;;;;;;;5.80;100.00;100495.38;5073768;28;20063;-63
2022/12/05 15:11:31;;;;;;;3.35;1.48;;;;;;;5.80;100.00;100498.84;5073570;28;20076;-64
2022/12/05 15:14:12;;;;;;;2.00;1.35;;;;;;;5.76;100.00;100494.81;5073555;28;20186;-62
2022/12/05 15:16:42;;;;;;;1.95;1.40;;;;;;;5.72;100.00;100494.25;5073812;28;20033;-63
2022/12/05 15:19:21;;;;;;;4.00;1.73;;;;;;;5.71;100.00;100497.88;5072442;28;20036;-63
2022/12/05 15:21:55;;;;;;;2.63;1.75;;;;;;;5.70;100.00;100504.13;5073396;28;20043;-64
2022/12/05 15:24:21;;;;;;;2.13;1.25;;;;;;;5.67;100.00;100504.41;5073455;28;20041;-63
2022/12/05 15:26:50;;;;;;;2.72;1.35;;;;;;;5.66;100.00;100504.53;5073484;28;20048;-63
2022/12/05 15:29:26;;;;;;;2.28;1.20;;;;;;;5.66;100.00;100509.81;5073086;28;20048;-63
2022/12/05 15:31:55;;;;;;;2.03;1.15;;;;;;;5.64;100.00;100517.88;5071556;28;20491;-63
2022/12/05 15:34:32;;;;;;;2.65;1.50;;;;;;;5.63;100.00;100508.28;5073306;28;20044;-63
2022/12/05 15:37:10;;;;;;;2.20;1.50;;;;;;;5.64;100.00;100512.59;5073302;28;20044;-61
2022/12/05 15:39:52;;;;;;;2.25;1.60;;;;;;;5.61;100.00;100504.94;5073189;28;20425;-63
2022/12/05 15:42:18;;;;;;;3.90;1.92;;;;;;;5.56;100.00;100501.88;5071614;28;20389;-62
2022/12/05 15:44:44;;;;;;;1.92;1.23;;;;;;;5.58;100.00;100507.84;5071830;28;20040;-63
2022/12/05 15:47:20;;;;;;;4.03;1.70;;;;;;;5.59;100.00;100508.69;5072961;28;20507;-63
2022/12/05 15:49:46;;;;;;;3.53;2.00;;;;;;;5.57;100.00;100516.75;5072893;28;20036;-63
2022/12/05 15:52:14;;;;;;;2.95;1.80;;;;;;;5.57;100.00;100515.91;5072528;28;20109;-63
2022/12/05 15:54:41;;;;;;;3.20;1.77;;;;;;;5.57;100.00;100527.31;5072779;28;20377;-63
2022/12/05 15:57:17;;;;;;;2.28;2.05;;;;;;;5.57;100.00;100531.78;5072806;28;20044;-64
2022/12/05 16:00:05;;;;;;;2.47;1.90;;;;;;;5.62;100.00;100529.56;5072114;28;20081;-63
2022/12/05 16:02:51;;;;;;;2.80;1.58;;;;;;;5.64;100.00;100531.09;5073150;28;20059;-62
2022/12/05 16:05:25;;;;;;;4.10;2.20;;;;;;;5.61;100.00;100533.19;5070948;28;20039;-62
2022/12/05 16:07:52;;;;;;;2.80;1.60;;;;;;;5.59;100.00;100530.66;5072909;28;20033;-62
2022/12/05 16:10:19;;;;;;;4.30;2.60;;;;;;;5.58;100.00;100531.63;5071235;28;20028;-60
2022/12/05 16:12:46;;;;;;;2.75;1.88;;;;;;;5.57;100.00;100529.97;5072484;28;20032;-61
2022/12/05 16:15:38;;;;;;;3.88;2.35;;;;;;;5.53;100.00;100528.53;5071180;28;20032;-63
2022/12/05 16:18:07;;;;;;;4.28;2.00;;;;;;;5.49;100.00;100532.44;5070976;28;20074;-64
2022/12/05 16:20:34;;;;;;;3.20;2.20;;;;;;;5.49;100.00;100529.81;5072207;28;20408;-64
2022/12/05 16:23:21;;;;;;;4.60;2.20;;;;;;;5.43;100.00;100527.69;5072318;28;20035;-63
2022/12/05 16:25:47;;;;;;;8.18;2.85;;;;;;;5.38;100.00;100522.78;5072149;28;20492;-61
2022/12/05 16:28:15;;;;;;;7.30;2.80;;;;;;;5.40;100.00;100531.41;5070795;28;20037;-63
2022/12/05 16:30:59;;;;;;;3.40;2.50;;;;;;;5.39;100.00;100528.91;5071757;28;20032;-64
2022/12/05 16:33:25;;;;;;;4.65;2.80;;;;;;;5.43;100.00;100533.81;5072160;28;20040;-63
2022/12/05 16:35:51;;;;;;;3.33;1.98;;;;;;;5.39;100.00;100535.03;5071766;28;20064;-64
2022/12/05 16:38:24;;;;;;;4.50;2.40;;;;;;;5.40;100.00;100535.88;5072010;28;20106;-64
2022/12/05 16:40:53;;;;;;;8.88;2.72;;;;;;;5.37;100.00;100536.97;5072003;28;20036;-63
2022/12/05 16:43:26;;;;;;;7.57;3.10;;;;;;;5.37;100.00;100538.78;5071741;28;20115;-64
2022/12/05 16:45:55;;;;;;;6.25;3.00;;;;;;;5.35;100.00;100538.09;5071799;28;20039;-64
2022/12/05 16:48:28;;;;;;;4.72;2.47;;;;;;;5.32;100.00;100538.34;5071830;28;20436;-63
2022/12/05 16:51:12;;;;;;;5.20;2.47;;;;;;;5.30;100.00;100538.47;5071312;28;20037;-64
2022/12/05 16:53:39;;;;;;;3.05;2.00;;;;;;;5.31;100.00;100539.31;5071868;28;20040;-63
2022/12/05 16:56:10;;;;;;;5.75;3.25;;;;;;;5.27;100.00;100544.00;5071724;28;20121;-66
2022/12/05 16:58:36;;;;;;;2.78;1.88;;;;;;;5.29;100.00;100543.91;5071835;28;20070;-64
2022/12/05 17:01:04;;;;;;;2.80;1.67;;;;;;;5.28;100.00;100536.91;5071282;28;20111;-64
2022/12/05 17:03:31;;;;;;;3.28;1.83;;;;;;;5.24;100.00;100536.38;5071465;28;20051;-64
2022/12/05 17:05:57;;;;;;;3.28;2.08;;;;;;;5.25;100.00;100539.84;5071482;28;20093;-64
2022/12/05 17:08:23;;;;;;;3.60;2.30;;;;;;;5.23;100.00;100553.19;5071533;28;20125;-65
2022/12/05 17:10:52;;;;;;;5.40;2.75;;;;;;;5.21;100.00;100547.19;5071083;28;20032;-64
2022/12/05 17:13:19;;;;;;;2.33;2.13;;;;;;;5.19;100.00;100546.47;5071614;28;20032;-64
2022/12/05 17:15:44;;;;;;;3.92;1.92;;;;;;;5.15;100.00;100551.22;5071344;28;20113;-64